Time;durP1;ratioP1;P1;durP2;ratioP2;P2;SDS_P1;SDS_P2;PMS_P1;PMS_P2;Temp;Humidity;BMP_temperature;BMP_pressure;BME280_temperature;BME280_humidity;BME280_pressure;Samples;Min_cycle;Max_cycle;Signal;HPM_P1;HPM_P2
2022/04/09 00:01:03;;;;;;;6.32;1.38;;;;;;;;;;5108193;27;20133;-70
2022/04/09 00:03:29;;;;;;;4.35;1.40;;;;;;;;;;5103398;27;20078;-69
2022/04/09 00:05:55;;;;;;;6.50;1.30;;;;;;;;;;5115127;27;20491;-69
2022/04/09 00:08:21;;;;;;;4.80;1.30;;;;;;;;;;5123870;27;20047;-69
2022/04/09 00:10:47;;;;;;;6.32;1.23;;;;;;;;;;5121723;27;20038;-69
2022/04/09 00:13:13;;;;;;;5.25;1.20;;;;;;;;;;5123688;27;20535;-69
2022/04/09 00:15:39;;;;;;;3.50;1.15;;;;;;;;;;5122246;27;20409;-69
2022/04/09 00:18:06;;;;;;;7.22;1.27;;;;;;;;;;5123487;27;20478;-68
2022/04/09 00:20:33;;;;;;;4.50;1.15;;;;;;;;;;5121227;27;20479;-69
2022/04/09 00:22:59;;;;;;;6.07;1.33;;;;;;;;;;5142447;27;20379;-69
2022/04/09 00:25:25;;;;;;;4.38;1.15;;;;;;;;;;5121690;27;20035;-69
2022/04/09 00:27:51;;;;;;;5.07;1.23;;;;;;;;;;5122900;27;20129;-69
2022/04/09 00:30:17;;;;;;;5.13;1.25;;;;;;;;;;5122560;27;20031;-68
2022/04/09 00:32:43;;;;;;;4.80;1.10;;;;;;;;;;5106296;27;20401;-68
2022/04/09 00:35:09;;;;;;;4.15;1.10;;;;;;;;;;5139955;27;20037;-69
2022/04/09 00:37:45;;;;;;;5.30;1.30;;;;;;;;;;5141848;27;20348;-69
2022/04/09 00:40:14;;;;;;;4.43;1.15;;;;;;;;;;5111803;27;20052;-69
2022/04/09 00:42:43;;;;;;;4.68;1.00;;;;;;;;;;5081391;28;20035;-69
2022/04/09 00:45:10;;;;;;;4.57;1.23;;;;;;;;;;5094495;27;20039;-68
2022/04/09 00:47:36;;;;;;;4.88;1.10;;;;;;;;;;5123212;27;20277;-69
2022/04/09 00:50:03;;;;;;;6.25;1.30;;;;;;;;;;5120284;27;20034;-68
2022/04/09 00:52:32;;;;;;;4.45;1.08;;;;;;;;;;5122593;27;20134;-69
2022/04/09 00:54:58;;;;;;;5.25;1.25;;;;;;;;;;5139366;27;20419;-69
2022/04/09 00:57:26;;;;;;;5.93;1.30;;;;;;;;;;5105340;27;20039;-69
2022/04/09 00:59:53;;;;;;;3.80;0.98;;;;;;;;;;5097252;28;20167;-69
2022/04/09 01:02:19;;;;;;;5.47;1.10;;;;;;;;;;5081879;28;20429;-69
2022/04/09 01:04:47;;;;;;;3.47;0.90;;;;;;;;;;5087059;27;20195;-69
2022/04/09 01:07:14;;;;;;;3.72;1.02;;;;;;;;;;5121669;27;20349;-68
2022/04/09 01:09:41;;;;;;;5.38;1.30;;;;;;;;;;5119923;27;20134;-69
2022/04/09 01:12:07;;;;;;;4.63;1.10;;;;;;;;;;5122518;27;20050;-68
2022/04/09 01:14:34;;;;;;;5.28;1.33;;;;;;;;;;5120127;27;20043;-69
2022/04/09 01:17:00;;;;;;;2.95;0.90;;;;;;;;;;5115768;27;20156;-68
2022/04/09 01:19:26;;;;;;;5.40;1.20;;;;;;;;;;5084728;27;20054;-68
2022/04/09 01:21:54;;;;;;;4.97;1.25;;;;;;;;;;5081590;28;20051;-68
2022/04/09 01:24:20;;;;;;;3.72;0.80;;;;;;;;;;5099387;28;20654;-68
2022/04/09 01:26:46;;;;;;;4.55;1.10;;;;;;;;;;5099577;27;20055;-68
2022/04/09 01:29:12;;;;;;;5.00;1.00;;;;;;;;;;5080132;28;20667;-68
2022/04/09 01:31:38;;;;;;;5.32;1.17;;;;;;;;;;5137360;27;20146;-68
2022/04/09 01:34:04;;;;;;;4.35;1.10;;;;;;;;;;5122789;27;20057;-68
2022/04/09 01:36:30;;;;;;;3.40;1.00;;;;;;;;;;5138644;27;20035;-68
2022/04/09 01:38:56;;;;;;;6.47;1.23;;;;;;;;;;5105207;27;20050;-68
2022/04/09 01:41:22;;;;;;;4.43;1.02;;;;;;;;;;5119164;27;20429;-68
2022/04/09 01:43:48;;;;;;;5.63;1.70;;;;;;;;;;5121188;27;20042;-69
2022/04/09 01:46:14;;;;;;;4.10;1.20;;;;;;;;;;5119869;27;20252;-68
2022/04/09 01:48:41;;;;;;;4.03;1.05;;;;;;;;;;5122080;27;20488;-68
2022/04/09 01:51:07;;;;;;;3.75;0.90;;;;;;;;;;5119579;27;20035;-68
2022/04/09 01:53:34;;;;;;;3.53;0.80;;;;;;;;;;5121766;27;20254;-68
2022/04/09 01:56:00;;;;;;;4.05;0.90;;;;;;;;;;5119764;27;20077;-68
2022/04/09 01:58:26;;;;;;;4.35;0.98;;;;;;;;;;5111669;27;20104;-68
2022/04/09 02:00:58;;;;;;;5.68;1.35;;;;;;;;;;5113401;27;20046;-68
2022/04/09 02:03:25;;;;;;;3.47;1.02;;;;;;;;;;5121051;27;20137;-68
2022/04/09 02:05:51;;;;;;;4.03;1.08;;;;;;;;;;5120546;27;20049;-68
2022/04/09 02:08:17;;;;;;;4.22;1.10;;;;;;;;;;5121873;27;20346;-68
2022/04/09 02:10:43;;;;;;;3.65;0.98;;;;;;;;;;5119269;27;20524;-68
2022/04/09 02:13:12;;;;;;;4.28;1.00;;;;;;;;;;5122029;27;20034;-69
2022/04/09 02:15:38;;;;;;;3.45;1.13;;;;;;;;;;5119852;27;20367;-68
2022/04/09 02:18:04;;;;;;;4.45;0.90;;;;;;;;;;5104252;27;20248;-68
2022/04/09 02:20:30;;;;;;;3.72;1.00;;;;;;;;;;5119481;27;20107;-68
2022/04/09 02:22:56;;;;;;;3.55;0.80;;;;;;;;;;5139995;27;20051;-68
2022/04/09 02:25:22;;;;;;;3.20;0.90;;;;;;;;;;5119095;27;20427;-68
2022/04/09 02:27:48;;;;;;;3.85;0.95;;;;;;;;;;5120952;27;20111;-68
2022/04/09 02:30:15;;;;;;;4.43;1.00;;;;;;;;;;5120237;27;20098;-68
2022/04/09 02:32:45;;;;;;;4.07;1.00;;;;;;;;;;5121675;27;20499;-68
2022/04/09 02:35:12;;;;;;;4.95;1.00;;;;;;;;;;5086165;28;20051;-70
2022/04/09 02:37:38;;;;;;;4.57;0.90;;;;;;;;;;5082993;28;20034;-69
2022/04/09 02:40:04;;;;;;;4.82;1.17;;;;;;;;;;5105195;27;20206;-69
2022/04/09 02:42:31;;;;;;;5.25;1.00;;;;;;;;;;5116014;28;20135;-69
2022/04/09 02:44:57;;;;;;;3.92;1.00;;;;;;;;;;5122809;27;20407;-68
2022/04/09 02:47:23;;;;;;;5.75;1.20;;;;;;;;;;5110288;28;20092;-69
2022/04/09 02:49:49;;;;;;;4.88;0.88;;;;;;;;;;5101897;27;20043;-70
2022/04/09 02:52:15;;;;;;;3.33;1.00;;;;;;;;;;5124675;27;20043;-69
2022/04/09 02:54:41;;;;;;;4.30;1.10;;;;;;;;;;5122802;27;20043;-69
2022/04/09 02:57:07;;;;;;;4.50;1.00;;;;;;;;;;5124964;27;20050;-69
2022/04/09 02:59:33;;;;;;;2.90;0.90;;;;;;;;;;5123252;27;20065;-68
2022/04/09 03:01:59;;;;;;;3.45;0.95;;;;;;;;;;5125220;27;20039;-68
2022/04/09 03:04:25;;;;;;;4.60;1.17;;;;;;;;;;5122742;27;20125;-68
2022/04/09 03:06:51;;;;;;;4.70;1.08;;;;;;;;;;5107850;27;20182;-69
2022/04/09 03:09:17;;;;;;;4.70;0.90;;;;;;;;;;5143655;27;20134;-68
2022/04/09 03:11:43;;;;;;;5.20;0.90;;;;;;;;;;5123491;27;20142;-68
2022/04/09 03:14:09;;;;;;;2.58;0.80;;;;;;;;;;5124494;27;20249;-67
2022/04/09 03:16:35;;;;;;;3.28;0.90;;;;;;;;;;5141661;27;20150;-68
2022/04/09 03:19:02;;;;;;;4.68;0.90;;;;;;;;;;5125008;27;20072;-67
2022/04/09 03:21:28;;;;;;;3.95;1.00;;;;;;;;;;5123316;27;20272;-68
2022/04/09 03:23:54;;;;;;;4.45;1.42;;;;;;;;;;5124939;27;20581;-67
2022/04/09 03:26:20;;;;;;;5.10;1.10;;;;;;;;;;5122118;27;20358;-68
2022/04/09 03:28:46;;;;;;;4.88;1.10;;;;;;;;;;5124390;27;20065;-68
2022/04/09 03:31:13;;;;;;;4.97;1.05;;;;;;;;;;5122601;27;20051;-68
2022/04/09 03:33:39;;;;;;;3.00;1.00;;;;;;;;;;5124509;27;20046;-68
2022/04/09 03:36:06;;;;;;;3.35;1.05;;;;;;;;;;5122921;27;20048;-68
2022/04/09 03:38:32;;;;;;;3.22;1.00;;;;;;;;;;5124608;27;20074;-68
2022/04/09 03:40:58;;;;;;;3.20;0.82;;;;;;;;;;5122330;27;20038;-68
2022/04/09 03:43:26;;;;;;;3.83;1.00;;;;;;;;;;5107098;27;20046;-68
2022/04/09 03:45:52;;;;;;;3.70;1.00;;;;;;;;;;5093737;27;20058;-68
2022/04/09 03:48:18;;;;;;;4.35;0.90;;;;;;;;;;5086741;27;20108;-69
2022/04/09 03:50:43;;;;;;;3.35;1.00;;;;;;;;;;5113669;27;20038;-68
2022/04/09 03:53:09;;;;;;;5.05;0.90;;;;;;;;;;5124084;27;20067;-68
2022/04/09 03:55:35;;;;;;;3.72;1.00;;;;;;;;;;5122060;27;20052;-68
2022/04/09 03:58:01;;;;;;;2.88;0.90;;;;;;;;;;5142456;27;20074;-68
2022/04/09 04:00:27;;;;;;;2.78;0.80;;;;;;;;;;5121727;27;20027;-68
2022/04/09 04:02:54;;;;;;;3.50;1.00;;;;;;;;;;5123413;27;20139;-68
2022/04/09 04:05:20;;;;;;;3.67;0.90;;;;;;;;;;5140687;27;20058;-68
2022/04/09 04:07:47;;;;;;;3.33;1.10;;;;;;;;;;5123524;27;20038;-68
2022/04/09 04:10:13;;;;;;;3.70;0.90;;;;;;;;;;5139731;27;20031;-68
2022/04/09 04:12:40;;;;;;;3.92;0.98;;;;;;;;;;5105848;27;20050;-68
2022/04/09 04:15:07;;;;;;;4.72;1.10;;;;;;;;;;5108050;27;20175;-69
2022/04/09 04:17:43;;;;;;;4.43;1.05;;;;;;;;;;5123344;27;20222;-69
2022/04/09 04:20:10;;;;;;;4.22;0.93;;;;;;;;;;5122130;27;20035;-67
2022/04/09 04:22:36;;;;;;;4.30;1.02;;;;;;;;;;5121792;27;20497;-68
2022/04/09 04:25:03;;;;;;;2.85;0.77;;;;;;;;;;5089705;27;20035;-68
2022/04/09 04:27:29;;;;;;;4.10;1.10;;;;;;;;;;5122696;27;20514;-68
2022/04/09 04:29:59;;;;;;;3.95;1.10;;;;;;;;;;5121810;27;20142;-68
2022/04/09 04:32:24;;;;;;;4.00;1.20;;;;;;;;;;5141630;27;20190;-68
2022/04/09 04:34:50;;;;;;;4.22;0.90;;;;;;;;;;5122099;27;20035;-68
2022/04/09 04:37:16;;;;;;;3.38;0.85;;;;;;;;;;5122930;27;20034;-69
2022/04/09 04:39:43;;;;;;;3.45;0.80;;;;;;;;;;5120525;27;20074;-68
2022/04/09 04:42:09;;;;;;;3.53;0.88;;;;;;;;;;5123192;27;20171;-68
2022/04/09 04:44:35;;;;;;;4.68;1.00;;;;;;;;;;5120663;27;20053;-68
2022/04/09 04:47:01;;;;;;;4.68;0.90;;;;;;;;;;5105700;27;20046;-68
2022/04/09 04:49:27;;;;;;;3.33;0.85;;;;;;;;;;5121002;27;20047;-68
2022/04/09 04:51:53;;;;;;;4.60;1.20;;;;;;;;;;5123179;27;20143;-68
2022/04/09 04:54:19;;;;;;;3.70;0.98;;;;;;;;;;5141911;27;20043;-68
2022/04/09 04:56:45;;;;;;;4.35;0.90;;;;;;;;;;5140840;27;20684;-67
2022/04/09 04:59:11;;;;;;;4.43;1.10;;;;;;;;;;5121949;27;20115;-67
2022/04/09 05:01:40;;;;;;;2.70;0.70;;;;;;;;;;5120902;27;20085;-68
2022/04/09 05:04:06;;;;;;;4.13;0.80;;;;;;;;;;5123054;27;20047;-67
2022/04/09 05:06:32;;;;;;;3.38;0.80;;;;;;;;;;5120234;27;20078;-68
2022/04/09 05:08:58;;;;;;;3.13;0.93;;;;;;;;;;5110944;27;20044;-68
2022/04/09 05:11:24;;;;;;;5.57;0.90;;;;;;;;;;5117266;27;20226;-68
2022/04/09 05:13:50;;;;;;;4.30;0.90;;;;;;;;;;5121719;27;20095;-68
2022/04/09 05:16:16;;;;;;;3.85;1.00;;;;;;;;;;5119945;27;20081;-68
2022/04/09 05:18:42;;;;;;;5.28;0.93;;;;;;;;;;5121641;27;20042;-67
2022/04/09 05:21:08;;;;;;;3.53;0.80;;;;;;;;;;5121635;27;20039;-68
2022/04/09 05:23:34;;;;;;;4.68;1.10;;;;;;;;;;5121935;27;20046;-68
2022/04/09 05:26:00;;;;;;;4.47;1.10;;;;;;;;;;5120226;27;20447;-68
2022/04/09 05:28:26;;;;;;;4.63;1.00;;;;;;;;;;5122046;27;20175;-68
2022/04/09 05:30:52;;;;;;;2.95;0.77;;;;;;;;;;5103723;27;20146;-68
2022/04/09 05:33:19;;;;;;;3.33;1.00;;;;;;;;;;5090848;27;20118;-68
2022/04/09 05:35:45;;;;;;;3.88;0.90;;;;;;;;;;5111186;27;20215;-68
2022/04/09 05:38:11;;;;;;;4.50;1.00;;;;;;;;;;5122011;27;20034;-68
2022/04/09 05:40:38;;;;;;;4.50;1.15;;;;;;;;;;5119593;27;20045;-67
2022/04/09 05:43:04;;;;;;;3.05;0.75;;;;;;;;;;5140583;27;20050;-68
2022/04/09 05:45:30;;;;;;;4.50;1.00;;;;;;;;;;5120936;27;20247;-68
2022/04/09 05:47:56;;;;;;;4.70;0.95;;;;;;;;;;5121725;27;20630;-67
2022/04/09 05:50:22;;;;;;;3.35;1.00;;;;;;;;;;5103359;27;20060;-69
2022/04/09 05:52:50;;;;;;;3.15;0.90;;;;;;;;;;5121629;27;20126;-68
2022/04/09 05:55:17;;;;;;;3.55;1.00;;;;;;;;;;5120379;27;20042;-68
2022/04/09 05:57:43;;;;;;;4.50;1.02;;;;;;;;;;5104412;27;20034;-68
2022/04/09 06:00:10;;;;;;;3.63;0.85;;;;;;;;;;5103196;27;20433;-68
2022/04/09 06:02:37;;;;;;;3.72;0.82;;;;;;;;;;5121697;27;20480;-68
2022/04/09 06:05:04;;;;;;;3.15;1.05;;;;;;;;;;5118224;27;20491;-68
2022/04/09 06:07:30;;;;;;;2.83;0.90;;;;;;;;;;5121860;27;20154;-68
2022/04/09 06:09:57;;;;;;;3.70;0.90;;;;;;;;;;5086067;27;20070;-67
2022/04/09 06:12:23;;;;;;;3.08;0.82;;;;;;;;;;5081962;27;20264;-68
2022/04/09 06:14:49;;;;;;;5.30;1.17;;;;;;;;;;5086245;27;20083;-68
2022/04/09 06:17:15;;;;;;;5.05;0.90;;;;;;;;;;5103347;27;20039;-69
2022/04/09 06:19:41;;;;;;;3.17;1.05;;;;;;;;;;5117958;27;20365;-68
2022/04/09 06:22:07;;;;;;;3.33;0.80;;;;;;;;;;5120551;27;20101;-68
2022/04/09 06:24:33;;;;;;;3.70;0.88;;;;;;;;;;5137320;27;20126;-68
2022/04/09 06:26:59;;;;;;;3.25;0.82;;;;;;;;;;5139367;27;20051;-68
2022/04/09 06:29:25;;;;;;;3.00;0.80;;;;;;;;;;5093341;27;20051;-68
2022/04/09 06:31:51;;;;;;;4.32;1.00;;;;;;;;;;5103986;27;20345;-68
2022/04/09 06:34:18;;;;;;;6.13;0.90;;;;;;;;;;5119906;27;20130;-68
2022/04/09 06:36:44;;;;;;;3.53;1.02;;;;;;;;;;5099233;28;20088;-68
2022/04/09 06:39:10;;;;;;;3.42;0.93;;;;;;;;;;5100396;28;20195;-68
2022/04/09 06:41:36;;;;;;;4.35;1.00;;;;;;;;;;5117117;27;20051;-69
2022/04/09 06:44:03;;;;;;;3.03;1.00;;;;;;;;;;5120523;27;20045;-68
2022/04/09 06:46:29;;;;;;;3.40;0.80;;;;;;;;;;5118826;27;20511;-68
2022/04/09 06:48:56;;;;;;;3.90;0.77;;;;;;;;;;5122775;27;20598;-68
2022/04/09 06:51:24;;;;;;;3.88;1.17;;;;;;;;;;5104091;27;20046;-68
2022/04/09 06:53:50;;;;;;;3.15;0.98;;;;;;;;;;5121003;27;20031;-70
2022/04/09 06:56:16;;;;;;;3.42;0.82;;;;;;;;;;5101600;27;20116;-68
2022/04/09 06:58:42;;;;;;;4.22;0.90;;;;;;;;;;5089439;27;20035;-69
2022/04/09 07:01:09;;;;;;;3.65;0.90;;;;;;;;;;5082956;27;20054;-69
2022/04/09 07:03:36;;;;;;;3.67;0.90;;;;;;;;;;5077467;27;20051;-69
2022/04/09 07:06:02;;;;;;;4.43;1.00;;;;;;;;;;5074623;27;20054;-69
2022/04/09 07:08:27;;;;;;;4.15;0.93;;;;;;;;;;5078801;27;20040;-68
2022/04/09 07:10:53;;;;;;;5.00;0.90;;;;;;;;;;5109599;27;20435;-70
2022/04/09 07:13:20;;;;;;;2.78;1.00;;;;;;;;;;5078627;27;20100;-70
2022/04/09 07:15:46;;;;;;;4.40;0.95;;;;;;;;;;5101226;27;20047;-69
2022/04/09 07:18:12;;;;;;;4.32;1.10;;;;;;;;;;5139794;27;20041;-69
2022/04/09 07:20:40;;;;;;;4.00;1.00;;;;;;;;;;5101383;28;20275;-70
2022/04/09 07:23:06;;;;;;;4.90;1.05;;;;;;;;;;5079671;28;20391;-70
2022/04/09 07:25:33;;;;;;;4.57;1.05;;;;;;;;;;5097957;27;20061;-70
2022/04/09 07:27:59;;;;;;;5.68;1.17;;;;;;;;;;5120614;27;20487;-69
2022/04/09 07:30:26;;;;;;;2.78;0.80;;;;;;;;;;5118904;27;20027;-69
2022/04/09 07:32:54;;;;;;;3.92;0.90;;;;;;;;;;5120001;27;20054;-69
2022/04/09 07:35:20;;;;;;;4.68;1.00;;;;;;;;;;5118331;27;20104;-69
2022/04/09 07:37:50;;;;;;;4.30;0.90;;;;;;;;;;5089351;27;20113;-69
2022/04/09 07:40:16;;;;;;;4.57;1.00;;;;;;;;;;5086441;27;20312;-70
2022/04/09 07:42:43;;;;;;;3.90;0.90;;;;;;;;;;5087931;27;20079;-69
2022/04/09 07:45:09;;;;;;;3.72;0.80;;;;;;;;;;5086768;27;20047;-70
2022/04/09 07:47:35;;;;;;;4.60;1.10;;;;;;;;;;5084227;27;20086;-71
2022/04/09 07:50:02;;;;;;;4.65;1.20;;;;;;;;;;5093434;27;20108;-70
2022/04/09 07:52:28;;;;;;;3.70;0.90;;;;;;;;;;5119240;27;20476;-71
2022/04/09 07:54:58;;;;;;;4.10;0.93;;;;;;;;;;5122412;27;20034;-70
2022/04/09 07:57:27;;;;;;;4.00;1.00;;;;;;;;;;5123867;27;20042;-70
2022/04/09 07:59:55;;;;;;;4.35;1.00;;;;;;;;;;5122418;27;20049;-68
2022/04/09 08:02:21;;;;;;;3.13;0.80;;;;;;;;;;5124760;27;20487;-69
2022/04/09 08:04:47;;;;;;;4.55;0.90;;;;;;;;;;5079477;27;20100;-69
2022/04/09 08:07:13;;;;;;;4.82;1.00;;;;;;;;;;5082188;27;20473;-70
2022/04/09 08:09:39;;;;;;;4.30;1.00;;;;;;;;;;5099089;27;20071;-70
2022/04/09 08:12:06;;;;;;;3.30;1.00;;;;;;;;;;5089559;27;20035;-69
2022/04/09 08:14:33;;;;;;;4.05;0.90;;;;;;;;;;5102571;27;20134;-69
2022/04/09 08:16:59;;;;;;;4.78;1.10;;;;;;;;;;5124292;27;20066;-68
2022/04/09 08:19:26;;;;;;;5.95;1.67;;;;;;;;;;5102576;27;20061;-68
2022/04/09 08:21:55;;;;;;;6.68;2.15;;;;;;;;;;5103726;27;20602;-68
2022/04/09 08:24:21;;;;;;;7.10;2.38;;;;;;;;;;5088701;27;20053;-69
2022/04/09 08:26:46;;;;;;;6.45;1.80;;;;;;;;;;5105025;27;20130;-70
2022/04/09 08:29:18;;;;;;;5.97;1.80;;;;;;;;;;5097027;27;20383;-69
2022/04/09 08:31:47;;;;;;;4.45;1.45;;;;;;;;;;5102216;27;20080;-68
2022/04/09 08:34:13;;;;;;;7.25;1.80;;;;;;;;;;5085073;27;20039;-69
2022/04/09 08:36:39;;;;;;;10.23;1.88;;;;;;;;;;5103250;27;20545;-70
2022/04/09 08:39:05;;;;;;;7.53;1.83;;;;;;;;;;5083406;27;20043;-68
2022/04/09 08:41:31;;;;;;;9.13;2.30;;;;;;;;;;5101549;27;20035;-69
2022/04/09 08:43:57;;;;;;;7.75;2.10;;;;;;;;;;5102247;27;20488;-68
2022/04/09 08:46:25;;;;;;;7.00;1.98;;;;;;;;;;5083937;27;20126;-69
2022/04/09 08:48:52;;;;;;;6.72;2.00;;;;;;;;;;5101821;27;20050;-70
2022/04/09 08:51:18;;;;;;;6.90;2.15;;;;;;;;;;5103201;27;20827;-71
2022/04/09 08:53:44;;;;;;;6.55;1.88;;;;;;;;;;5104924;27;20035;-69
2022/04/09 08:56:12;;;;;;;6.40;1.80;;;;;;;;;;5102722;27;20435;-70
2022/04/09 08:58:38;;;;;;;6.22;2.33;;;;;;;;;;5123800;27;20050;-69
2022/04/09 09:01:04;;;;;;;6.38;2.22;;;;;;;;;;5086161;27;20104;-69
2022/04/09 09:03:30;;;;;;;6.85;2.22;;;;;;;;;;5120787;27;20671;-69
2022/04/09 09:05:56;;;;;;;7.03;2.20;;;;;;;;;;5105143;27;20043;-69
2022/04/09 09:08:38;;;;;;;7.88;2.17;;;;;;;;;;5103177;27;20039;-70
2022/04/09 09:11:05;;;;;;;6.78;2.10;;;;;;;;;;5119853;27;20091;-69
2022/04/09 09:13:45;;;;;;;6.38;2.10;;;;;;;;;;5107113;27;20319;-70
2022/04/09 09:16:18;;;;;;;6.78;2.10;;;;;;;;;;5101075;27;20236;-69
2022/04/09 09:18:44;;;;;;;5.35;1.83;;;;;;;;;;5083361;27;20043;-72
2022/04/09 09:21:16;;;;;;;6.97;2.28;;;;;;;;;;5110473;27;20039;-69
2022/04/09 09:23:42;;;;;;;5.32;2.10;;;;;;;;;;5120159;27;20063;-69
2022/04/09 09:26:08;;;;;;;6.60;2.15;;;;;;;;;;5114870;27;20502;-70
2022/04/09 09:28:35;;;;;;;6.35;2.10;;;;;;;;;;5084388;27;20051;-68
2022/04/09 09:31:01;;;;;;;7.45;1.90;;;;;;;;;;5073969;27;20078;-69
2022/04/09 09:33:28;;;;;;;6.90;2.08;;;;;;;;;;5089242;27;20232;-70
2022/04/09 09:35:55;;;;;;;5.18;2.00;;;;;;;;;;5097746;27;20425;-69
2022/04/09 09:38:27;;;;;;;5.22;1.60;;;;;;;;;;5094813;27;20039;-69
2022/04/09 09:40:53;;;;;;;4.72;1.75;;;;;;;;;;5110343;27;20476;-69
2022/04/09 09:43:20;;;;;;;7.35;1.98;;;;;;;;;;5101646;27;20234;-69
2022/04/09 09:45:47;;;;;;;6.20;1.98;;;;;;;;;;5112486;27;20042;-69
2022/04/09 09:48:26;;;;;;;8.35;2.13;;;;;;;;;;5102015;27;20027;-69
2022/04/09 09:50:53;;;;;;;4.97;1.80;;;;;;;;;;5105894;27;20039;-69
2022/04/09 09:53:29;;;;;;;6.53;1.90;;;;;;;;;;5107054;27;20058;-69
2022/04/09 09:55:56;;;;;;;6.07;1.67;;;;;;;;;;5072948;27;20404;-69
2022/04/09 09:58:23;;;;;;;5.32;1.45;;;;;;;;;;5077760;27;20047;-70
2022/04/09 10:00:49;;;;;;;6.28;1.50;;;;;;;;;;5111751;27;20461;-70
2022/04/09 10:03:16;;;;;;;5.60;1.67;;;;;;;;;;5075509;27;20051;-70
2022/04/09 10:05:42;;;;;;;7.90;1.42;;;;;;;;;;5083619;27;20159;-69
2022/04/09 10:08:09;;;;;;;5.35;1.55;;;;;;;;;;5084168;27;20146;-69
2022/04/09 10:10:36;;;;;;;5.32;1.77;;;;;;;;;;5110653;27;20540;-69
2022/04/09 10:13:04;;;;;;;5.03;1.70;;;;;;;;;;5097367;27;20062;-69
2022/04/09 10:15:31;;;;;;;5.20;1.83;;;;;;;;;;5106678;27;20035;-71
2022/04/09 10:17:58;;;;;;;7.15;1.70;;;;;;;;;;5121738;27;20042;-70
2022/04/09 10:20:27;;;;;;;4.10;1.30;;;;;;;;;;5092207;27;20425;-69
2022/04/09 10:22:56;;;;;;;5.70;1.70;;;;;;;;;;5121590;27;20063;-69
2022/04/09 10:25:25;;;;;;;4.50;1.55;;;;;;;;;;5119906;27;20035;-70
2022/04/09 10:27:53;;;;;;;5.32;1.38;;;;;;;;;;5121301;27;20073;-69
2022/04/09 10:30:22;;;;;;;4.93;1.30;;;;;;;;;;5112064;27;20507;-69
2022/04/09 10:32:51;;;;;;;5.30;1.58;;;;;;;;;;5072609;28;20461;-69
2022/04/09 10:35:29;;;;;;;4.35;1.38;;;;;;;;;;5095222;27;20039;-69
2022/04/09 10:38:08;;;;;;;4.45;1.20;;;;;;;;;;5096827;28;20245;-69
2022/04/09 10:40:34;;;;;;;6.05;1.30;;;;;;;;;;5092333;27;20082;-69
2022/04/09 10:43:01;;;;;;;4.47;1.25;;;;;;;;;;5078615;28;20568;-69
2022/04/09 10:45:31;;;;;;;4.38;1.30;;;;;;;;;;5090483;28;20077;-69
2022/04/09 10:48:14;;;;;;;5.28;1.20;;;;;;;;;;5099927;28;20143;-69
2022/04/09 10:50:59;;;;;;;4.72;1.60;;;;;;;;;;5101078;27;20050;-68
2022/04/09 10:53:29;;;;;;;5.15;1.42;;;;;;;;;;5104199;27;20614;-68
2022/04/09 10:56:17;;;;;;;4.10;1.20;;;;;;;;;;5120079;27;20053;-68
2022/04/09 10:59:02;;;;;;;4.20;1.30;;;;;;;;;;5120279;27;20066;-68
2022/04/09 11:01:50;;;;;;;4.95;1.50;;;;;;;;;;5119391;27;20042;-68
2022/04/09 11:04:32;;;;;;;4.20;1.10;;;;;;;;;;5121234;27;20090;-68
2022/04/09 11:07:00;;;;;;;5.07;1.33;;;;;;;;;;5080227;28;20048;-69
2022/04/09 11:09:27;;;;;;;4.20;1.17;;;;;;;;;;5080352;27;20039;-69
2022/04/09 11:12:02;;;;;;;3.97;1.10;;;;;;;;;;5120158;27;20047;-68
2022/04/09 11:14:28;;;;;;;5.22;1.25;;;;;;;;;;5123975;27;20106;-69
2022/04/09 11:16:54;;;;;;;4.18;1.15;;;;;;;;;;5125004;27;20491;-68
2022/04/09 11:19:21;;;;;;;5.28;1.27;;;;;;;;;;5113710;27;20039;-68
2022/04/09 11:21:51;;;;;;;4.70;1.42;;;;;;;;;;5122767;27;20141;-68
2022/04/09 11:24:17;;;;;;;4.78;1.67;;;;;;;;;;5076999;27;20044;-68
2022/04/09 11:26:54;;;;;;;4.07;1.13;;;;;;;;;;5107721;27;20107;-68
2022/04/09 11:29:20;;;;;;;5.28;1.05;;;;;;;;;;5087547;27;20112;-68
2022/04/09 11:31:49;;;;;;;3.53;1.13;;;;;;;;;;5076788;27;20055;-68
2022/04/09 11:34:15;;;;;;;3.78;1.13;;;;;;;;;;5075104;27;20694;-69
2022/04/09 11:36:41;;;;;;;4.57;1.02;;;;;;;;;;5083671;27;20066;-68
2022/04/09 11:39:07;;;;;;;3.47;1.00;;;;;;;;;;5059006;27;20050;-68
2022/04/09 11:41:33;;;;;;;2.63;0.77;;;;;;;;;;5066320;27;20050;-68
2022/04/09 11:44:00;;;;;;;4.93;1.35;;;;;;;;;;5077314;27;20051;-68
2022/04/09 11:46:32;;;;;;;4.97;1.60;;;;;;;;;;5088103;27;20351;-68
2022/04/09 11:49:01;;;;;;;4.97;1.30;;;;;;;;;;5089851;27;20129;-69
2022/04/09 11:51:27;;;;;;;3.13;1.10;;;;;;;;;;5119741;27;20124;-68
2022/04/09 11:54:12;;;;;;;4.50;1.33;;;;;;;;;;5087349;27;20063;-68
2022/04/09 11:56:39;;;;;;;4.65;1.30;;;;;;;;;;5077986;27;20039;-68
2022/04/09 11:59:11;;;;;;;3.95;1.33;;;;;;;;;;5098390;27;20141;-68
2022/04/09 12:01:37;;;;;;;4.28;1.20;;;;;;;;;;5081436;27;20125;-68
2022/04/09 12:04:03;;;;;;;3.33;1.02;;;;;;;;;;5081849;28;20050;-68
2022/04/09 12:06:29;;;;;;;4.03;1.00;;;;;;;;;;5117919;27;20042;-67
2022/04/09 12:08:56;;;;;;;2.92;1.05;;;;;;;;;;5123702;27;20528;-68
2022/04/09 12:11:22;;;;;;;4.63;1.30;;;;;;;;;;5121790;27;20038;-69
2022/04/09 12:13:49;;;;;;;3.90;1.05;;;;;;;;;;5106870;27;20058;-68
2022/04/09 12:16:16;;;;;;;3.05;1.05;;;;;;;;;;5105734;27;20430;-68
2022/04/09 12:18:42;;;;;;;3.92;0.90;;;;;;;;;;5112388;27;20095;-68
2022/04/09 12:21:18;;;;;;;4.55;1.23;;;;;;;;;;5116512;27;20046;-68
2022/04/09 12:23:46;;;;;;;4.70;1.20;;;;;;;;;;5122221;27;20131;-68
2022/04/09 12:26:22;;;;;;;4.38;1.30;;;;;;;;;;5113977;27;20436;-68
2022/04/09 12:29:04;;;;;;;4.20;1.15;;;;;;;;;;5098054;27;20108;-68
2022/04/09 12:31:32;;;;;;;5.15;1.25;;;;;;;;;;5108769;27;20175;-68
2022/04/09 12:33:59;;;;;;;6.25;1.10;;;;;;;;;;5102702;27;20035;-68
2022/04/09 12:36:25;;;;;;;3.83;1.05;;;;;;;;;;5102752;27;20054;-68
2022/04/09 12:38:51;;;;;;;4.60;1.05;;;;;;;;;;5050922;27;20461;-68
2022/04/09 12:41:17;;;;;;;3.85;1.00;;;;;;;;;;5100076;27;20081;-68
2022/04/09 12:43:43;;;;;;;4.28;0.95;;;;;;;;;;5104020;27;20053;-68
2022/04/09 12:46:13;;;;;;;4.13;0.90;;;;;;;;;;5104759;27;20051;-68
2022/04/09 12:48:39;;;;;;;4.13;1.20;;;;;;;;;;5102143;27;20050;-68
2022/04/09 12:51:06;;;;;;;3.92;1.10;;;;;;;;;;5084314;27;20458;-69
2022/04/09 12:53:32;;;;;;;2.88;0.93;;;;;;;;;;5105000;27;20031;-68
2022/04/09 12:55:58;;;;;;;3.25;0.90;;;;;;;;;;5113999;27;20038;-68
2022/04/09 12:58:24;;;;;;;3.30;0.80;;;;;;;;;;5115117;27;20042;-68
2022/04/09 13:00:50;;;;;;;3.83;1.10;;;;;;;;;;5054491;27;20133;-68
2022/04/09 13:03:17;;;;;;;3.83;1.20;;;;;;;;;;5088145;27;20393;-67
2022/04/09 13:05:43;;;;;;;3.38;1.10;;;;;;;;;;5110897;27;20534;-67
2022/04/09 13:08:09;;;;;;;3.42;0.77;;;;;;;;;;5110051;27;20158;-68
2022/04/09 13:10:35;;;;;;;4.00;0.88;;;;;;;;;;5109963;27;20139;-68
2022/04/09 13:13:01;;;;;;;2.88;0.80;;;;;;;;;;5105162;27;20481;-68
2022/04/09 13:15:28;;;;;;;5.03;1.35;;;;;;;;;;5109391;27;20511;-67
2022/04/09 13:17:54;;;;;;;3.53;1.13;;;;;;;;;;5101524;27;20236;-68
2022/04/09 13:20:20;;;;;;;2.60;0.75;;;;;;;;;;5108655;27;20042;-68
2022/04/09 13:22:46;;;;;;;3.95;1.27;;;;;;;;;;5105042;27;20248;-67
2022/04/09 13:25:15;;;;;;;2.65;0.80;;;;;;;;;;5097071;27;20118;-68
2022/04/09 13:27:44;;;;;;;3.60;0.85;;;;;;;;;;5098404;28;20528;-68
2022/04/09 13:30:11;;;;;;;4.35;0.90;;;;;;;;;;5089089;27;20036;-68
2022/04/09 13:32:38;;;;;;;2.45;0.68;;;;;;;;;;5086054;28;20147;-68
2022/04/09 13:35:04;;;;;;;8.27;1.40;;;;;;;;;;5094719;28;20548;-67
2022/04/09 13:37:30;;;;;;;3.97;0.90;;;;;;;;;;5101079;27;20036;-68
2022/04/09 13:39:56;;;;;;;5.68;1.02;;;;;;;;;;5078119;27;20137;-68
2022/04/09 13:42:22;;;;;;;5.10;1.08;;;;;;;;;;5090026;28;20145;-68
2022/04/09 13:44:48;;;;;;;4.40;1.10;;;;;;;;;;5096145;28;20301;-68
2022/04/09 13:47:14;;;;;;;4.30;0.98;;;;;;;;;;5098297;28;20691;-68
2022/04/09 13:49:41;;;;;;;6.15;1.50;;;;;;;;;;5095478;27;20052;-68
2022/04/09 13:52:07;;;;;;;4.10;1.10;;;;;;;;;;5101369;27;20032;-69
2022/04/09 13:54:33;;;;;;;3.75;0.95;;;;;;;;;;5099740;27;20040;-68
2022/04/09 13:56:59;;;;;;;3.50;0.82;;;;;;;;;;5119388;27;20399;-68
2022/04/09 13:59:25;;;;;;;4.78;1.05;;;;;;;;;;5118141;27;20168;-68
2022/04/09 14:01:52;;;;;;;6.55;1.23;;;;;;;;;;5105024;27;20436;-68
2022/04/09 14:04:18;;;;;;;6.28;1.20;;;;;;;;;;5093934;28;20205;-68
2022/04/09 14:06:44;;;;;;;6.60;1.00;;;;;;;;;;5081729;28;20185;-68
2022/04/09 14:09:10;;;;;;;6.55;1.38;;;;;;;;;;5077698;28;20080;-68
2022/04/09 14:11:36;;;;;;;4.53;1.23;;;;;;;;;;5085369;27;20044;-69
2022/04/09 14:14:02;;;;;;;3.45;0.98;;;;;;;;;;5077904;28;20429;-69
2022/04/09 14:16:28;;;;;;;3.95;0.90;;;;;;;;;;5094428;28;20208;-69
2022/04/09 14:18:54;;;;;;;4.78;0.95;;;;;;;;;;5105207;27;20050;-68
2022/04/09 14:21:21;;;;;;;6.90;1.33;;;;;;;;;;5113353;27;20118;-69
2022/04/09 14:23:47;;;;;;;5.15;1.17;;;;;;;;;;5119171;27;20047;-68
2022/04/09 14:26:14;;;;;;;2.97;1.00;;;;;;;;;;5116040;27;20059;-68
2022/04/09 14:28:41;;;;;;;4.00;1.20;;;;;;;;;;5118286;27;20583;-68
2022/04/09 14:31:07;;;;;;;4.38;1.00;;;;;;;;;;5096428;28;20491;-68
2022/04/09 14:33:33;;;;;;;4.70;1.05;;;;;;;;;;5098861;28;20034;-68
2022/04/09 14:35:59;;;;;;;3.72;1.10;;;;;;;;;;5087636;28;20044;-68
2022/04/09 14:38:25;;;;;;;4.70;1.10;;;;;;;;;;5087479;28;20118;-68
2022/04/09 14:40:52;;;;;;;4.38;1.00;;;;;;;;;;5116310;28;20041;-68
2022/04/09 14:43:18;;;;;;;6.05;1.10;;;;;;;;;;5098558;28;20654;-68